Time;durP1;ratioP1;P1;durP2;ratioP2;P2;SDS_P1;SDS_P2;PMS_P1;PMS_P2;Temp;Humidity;BMP_temperature;BMP_pressure;BME280_temperature;BME280_humidity;BME280_pressure;Samples;Min_cycle;Max_cycle;Signal;HPM_P1;HPM_P2
2022/03/04 00:02:03;;;;;;;63.30;29.40;;;0.20;99.90;;;;;;4975156;28;20181;-63
2022/03/04 00:04:28;;;;;;;65.93;29.63;;;0.20;99.90;;;;;;4975158;28;20601;-64
2022/03/04 00:06:54;;;;;;;63.83;30.07;;;0.20;99.90;;;;;;4973697;28;20276;-61
2022/03/04 00:09:20;;;;;;;60.53;27.47;;;0.20;99.90;;;;;;4974866;28;20697;-61
2022/03/04 00:11:48;;;;;;;62.73;29.63;;;0.20;99.90;;;;;;4975143;28;20200;-60
2022/03/04 00:14:14;;;;;;;65.63;29.37;;;0.20;99.90;;;;;;4975239;28;20256;-61
2022/03/04 00:16:40;;;;;;;59.27;29.37;;;0.20;99.90;;;;;;4974719;28;20549;-61
2022/03/04 00:19:09;;;;;;;56.57;27.80;;;0.10;99.90;;;;;;4993983;28;20212;-62
2022/03/04 00:21:38;;;;;;;66.30;30.70;;;0.10;99.90;;;;;;4994666;28;20195;-62
2022/03/04 00:24:05;;;;;;;57.00;25.00;;;0.10;99.90;;;;;;4993306;28;20652;-63
2022/03/04 00:26:31;;;;;;;60.23;27.60;;;0.10;99.90;;;;;;4993281;28;20188;-61
2022/03/04 00:28:57;;;;;;;58.67;26.83;;;0.10;99.90;;;;;;4992972;28;21021;-62
2022/03/04 00:31:24;;;;;;;62.33;25.67;;;0.10;99.90;;;;;;4994064;28;20633;-62
2022/03/04 00:33:50;;;;;;;61.33;28.33;;;0.10;99.90;;;;;;4994013;28;20223;-63
2022/03/04 00:36:15;;;;;;;57.63;26.93;;;0.10;99.90;;;;;;4994151;28;20307;-62
2022/03/04 00:38:41;;;;;;;60.87;28.83;;;0.10;99.90;;;;;;4994154;28;20255;-63
2022/03/04 00:41:07;;;;;;;65.27;28.30;;;0.00;99.90;;;;;;4993149;28;20179;-62
2022/03/04 00:43:33;;;;;;;62.17;29.67;;;0.00;99.90;;;;;;4994108;28;20551;-63
2022/03/04 00:45:59;;;;;;;53.63;26.50;;;0.10;99.90;;;;;;4993638;28;20251;-63
2022/03/04 00:48:25;;;;;;;58.40;29.60;;;0.00;99.90;;;;;;4994048;28;20181;-63
2022/03/04 00:50:51;;;;;;;60.13;26.23;;;0.10;99.90;;;;;;4993852;28;20706;-64
2022/03/04 00:53:18;;;;;;;58.70;28.70;;;0.00;99.90;;;;;;4994222;28;20605;-64
2022/03/04 00:55:44;;;;;;;54.23;27.73;;;0.00;99.90;;;;;;4993688;28;20212;-64
2022/03/04 00:58:09;;;;;;;55.97;25.20;;;0.00;99.90;;;;;;4994023;28;20563;-63
2022/03/04 01:00:36;;;;;;;57.37;26.70;;;0.00;99.90;;;;;;4994235;28;20180;-63
2022/03/04 01:03:03;;;;;;;54.03;25.43;;;0.00;99.90;;;;;;4993478;28;20242;-63
2022/03/04 01:05:29;;;;;;;53.20;24.80;;;0.00;99.90;;;;;;4993682;28;20625;-63
2022/03/04 01:07:55;;;;;;;50.60;20.60;;;0.00;99.90;;;;;;4993762;28;20184;-64
2022/03/04 01:10:21;;;;;;;51.53;25.57;;;0.00;99.90;;;;;;4992729;28;20625;-64
2022/03/04 01:12:47;;;;;;;53.17;25.20;;;0.00;99.90;;;;;;4993311;28;20187;-62
2022/03/04 01:15:13;;;;;;;51.70;24.67;;;0.00;99.90;;;;;;4992006;28;20188;-63
2022/03/04 01:17:40;;;;;;;47.53;23.77;;;-0.10;99.90;;;;;;4985683;28;20230;-63
2022/03/04 01:20:06;;;;;;;46.90;22.77;;;-0.10;99.90;;;;;;4972684;28;20196;-64
2022/03/04 01:22:32;;;;;;;44.80;21.47;;;-0.10;99.90;;;;;;4973944;28;20181;-63
2022/03/04 01:24:58;;;;;;;47.53;23.57;;;-0.10;99.90;;;;;;4972078;28;20190;-64
2022/03/04 01:27:24;;;;;;;58.03;23.63;;;-0.10;99.90;;;;;;4972774;28;20693;-63
2022/03/04 01:29:50;;;;;;;48.97;23.77;;;-0.10;99.90;;;;;;4973826;28;20185;-63
2022/03/04 01:32:16;;;;;;;48.70;22.83;;;-0.10;99.90;;;;;;4972333;28;20195;-64
2022/03/04 01:34:42;;;;;;;45.37;20.83;;;-0.10;99.90;;;;;;4972623;28;20629;-66
2022/03/04 01:37:09;;;;;;;47.53;22.17;;;-0.10;99.90;;;;;;4972784;28;20683;-64
2022/03/04 01:39:35;;;;;;;44.87;22.03;;;-0.20;99.90;;;;;;4973818;28;20207;-65
2022/03/04 01:42:01;;;;;;;46.67;20.63;;;-0.20;99.90;;;;;;4972770;28;20193;-66
2022/03/04 01:44:27;;;;;;;51.60;22.67;;;-0.20;99.90;;;;;;4973670;28;20701;-66
2022/03/04 01:46:53;;;;;;;45.77;21.03;;;-0.30;99.90;;;;;;4973345;28;20271;-65
2022/03/04 01:49:20;;;;;;;37.50;17.83;;;-0.30;99.90;;;;;;4972355;28;20208;-65
2022/03/04 01:51:46;;;;;;;50.70;21.70;;;-0.30;99.90;;;;;;4973367;28;20236;-65
2022/03/04 01:54:12;;;;;;;40.97;20.33;;;-0.30;99.90;;;;;;4973386;28;20610;-65
2022/03/04 01:56:37;;;;;;;47.07;20.73;;;-0.40;99.90;;;;;;4973237;28;20312;-64
2022/03/04 01:59:03;;;;;;;43.27;19.90;;;-0.40;99.90;;;;;;4971814;28;20666;-64
2022/03/04 02:01:30;;;;;;;44.47;22.43;;;-0.40;99.90;;;;;;4973368;28;20271;-64
2022/03/04 02:03:56;;;;;;;50.63;23.23;;;-0.50;99.90;;;;;;4972669;28;20180;-64
2022/03/04 02:06:21;;;;;;;46.53;22.63;;;-0.50;99.90;;;;;;4973200;28;20319;-64
2022/03/04 02:08:47;;;;;;;39.17;19.97;;;-0.50;99.90;;;;;;4973082;28;20184;-63
2022/03/04 02:11:13;;;;;;;45.20;19.93;;;-0.50;99.90;;;;;;4973223;28;20182;-63
2022/03/04 02:13:39;;;;;;;42.43;20.30;;;-0.60;99.90;;;;;;4973387;28;20284;-63
2022/03/04 02:16:17;;;;;;;41.80;17.40;;;-0.60;99.90;;;;;;4972626;28;20732;-63
2022/03/04 02:18:43;;;;;;;43.00;19.37;;;-0.60;99.90;;;;;;4973313;28;20192;-64
2022/03/04 02:21:13;;;;;;;44.27;20.87;;;-0.60;99.90;;;;;;4972524;28;20191;-64
2022/03/04 02:23:39;;;;;;;34.57;16.17;;;-0.60;99.90;;;;;;4973270;28;20204;-64
2022/03/04 02:26:05;;;;;;;45.67;21.23;;;-0.60;99.90;;;;;;4972718;28;20215;-64
2022/03/04 02:28:31;;;;;;;49.67;22.50;;;-0.60;99.90;;;;;;4972984;28;20208;-64
2022/03/04 02:30:57;;;;;;;43.60;21.43;;;-0.60;99.90;;;;;;4972847;28;20208;-64
2022/03/04 02:33:23;;;;;;;47.53;23.07;;;-0.70;99.90;;;;;;4972808;28;20239;-66
2022/03/04 02:35:49;;;;;;;50.40;22.20;;;-0.70;99.90;;;;;;4972002;28;20212;-64
2022/03/04 02:38:14;;;;;;;49.00;21.63;;;-0.70;99.90;;;;;;4971501;28;20688;-63
2022/03/04 02:40:40;;;;;;;53.30;23.83;;;-0.70;99.90;;;;;;4972723;28;20236;-63
2022/03/04 02:43:06;;;;;;;45.70;22.50;;;-0.70;99.90;;;;;;4972959;28;20231;-63
2022/03/04 02:45:32;;;;;;;45.93;21.07;;;-0.70;99.90;;;;;;4972823;28;20521;-63
2022/03/04 02:47:58;;;;;;;48.80;22.23;;;-0.70;99.90;;;;;;4972267;28;20220;-63
2022/03/04 02:50:24;;;;;;;48.07;23.07;;;-0.70;99.90;;;;;;4972624;28;20241;-64
2022/03/04 02:52:50;;;;;;;45.40;21.87;;;-0.70;99.90;;;;;;4972890;28;20680;-64
2022/03/04 02:55:16;;;;;;;47.73;21.97;;;-0.70;99.90;;;;;;4972813;28;20204;-63
2022/03/04 02:57:44;;;;;;;44.77;21.97;;;-0.70;99.90;;;;;;4971201;28;20220;-64
2022/03/04 03:00:12;;;;;;;51.70;25.07;;;-0.80;99.90;;;;;;4972564;28;20271;-64
2022/03/04 03:02:38;;;;;;;53.23;24.23;;;-0.80;99.90;;;;;;4972448;28;20189;-63
2022/03/04 03:05:04;;;;;;;52.17;25.47;;;-0.80;99.90;;;;;;4972375;28;20235;-63
2022/03/04 03:07:30;;;;;;;53.20;25.83;;;-0.80;99.90;;;;;;4972407;28;20260;-64
2022/03/04 03:09:56;;;;;;;55.10;26.63;;;-0.90;99.90;;;;;;4972321;28;20645;-64
2022/03/04 03:12:21;;;;;;;53.83;25.53;;;-0.80;99.90;;;;;;4972600;28;20602;-64
2022/03/04 03:14:47;;;;;;;55.27;25.70;;;-0.90;99.90;;;;;;4954971;28;20180;-74
2022/03/04 03:17:13;;;;;;;62.20;29.07;;;-0.90;99.90;;;;;;4975995;28;20243;-64
2022/03/04 03:19:39;;;;;;;55.17;25.67;;;-1.00;99.90;;;;;;4991662;28;20191;-64
2022/03/04 03:22:05;;;;;;;53.77;24.70;;;-1.00;99.90;;;;;;4991450;28;20189;-67
2022/03/04 03:24:31;;;;;;;37.20;16.00;;;-1.00;99.90;;;;;;4991703;28;20208;-65
2022/03/04 03:26:57;;;;;;;51.07;24.43;;;-1.00;99.90;;;;;;4991470;28;20722;-65
2022/03/04 03:29:22;;;;;;;51.87;25.10;;;-1.00;99.90;;;;;;4992146;28;20176;-63
2022/03/04 03:31:48;;;;;;;61.47;28.70;;;-1.00;99.90;;;;;;4991538;28;20203;-73
2022/03/04 03:34:14;;;;;;;54.67;25.17;;;-1.10;99.90;;;;;;4990386;28;20267;-64
2022/03/04 03:36:40;;;;;;;59.67;26.10;;;-1.10;99.90;;;;;;4989950;28;21019;-64
2022/03/04 03:39:08;;;;;;;60.07;25.30;;;-1.20;99.90;;;;;;4973838;28;20204;-64
2022/03/04 03:41:34;;;;;;;56.07;25.67;;;-1.20;99.90;;;;;;4991714;28;20191;-64
2022/03/04 03:44:01;;;;;;;48.00;22.50;;;-1.20;99.90;;;;;;4991529;28;20172;-64
2022/03/04 03:46:26;;;;;;;54.30;25.60;;;-1.20;99.90;;;;;;4992386;28;20191;-64
2022/03/04 03:48:52;;;;;;;40.17;19.97;;;-1.20;99.90;;;;;;4993375;28;20187;-65
2022/03/04 03:51:18;;;;;;;70.10;28.77;;;-1.20;99.90;;;;;;4993558;28;20183;-64
2022/03/04 03:53:44;;;;;;;59.47;26.67;;;-1.30;99.90;;;;;;4994899;28;20266;-65
2022/03/04 03:56:09;;;;;;;40.70;19.57;;;-1.30;99.90;;;;;;4994587;28;20683;-64
2022/03/04 03:58:35;;;;;;;62.37;27.23;;;-1.30;99.90;;;;;;4977191;28;20294;-64
2022/03/04 04:01:02;;;;;;;61.63;26.37;;;-1.30;99.90;;;;;;4994614;28;20184;-65
2022/03/04 04:03:28;;;;;;;47.03;21.87;;;-1.30;99.90;;;;;;4994425;28;20589;-64
2022/03/04 04:05:54;;;;;;;50.80;22.90;;;-1.30;99.90;;;;;;4992790;28;20232;-64
2022/03/04 04:08:20;;;;;;;49.67;21.27;;;-1.30;99.90;;;;;;4994473;28;20597;-64
2022/03/04 04:10:47;;;;;;;56.77;27.43;;;-1.30;99.90;;;;;;4994555;28;20208;-64
2022/03/04 04:13:13;;;;;;;53.60;24.27;;;-1.30;99.90;;;;;;4993996;28;20207;-65
2022/03/04 04:15:39;;;;;;;32.87;16.13;;;-1.30;99.90;;;;;;4977079;28;20220;-65
2022/03/04 04:18:04;;;;;;;52.67;24.83;;;-1.30;99.90;;;;;;4981858;28;20180;-64
2022/03/04 04:20:30;;;;;;;55.80;24.73;;;-1.30;99.90;;;;;;4973514;28;20520;-64
2022/03/04 04:22:56;;;;;;;53.43;24.60;;;-1.30;99.90;;;;;;4974646;28;20208;-64
2022/03/04 04:25:22;;;;;;;50.47;23.70;;;-1.30;99.90;;;;;;4974861;28;20199;-64
2022/03/04 04:27:48;;;;;;;44.17;20.17;;;-1.30;99.90;;;;;;4974817;28;20582;-64
2022/03/04 04:30:13;;;;;;;56.37;24.50;;;-1.40;99.90;;;;;;4973373;28;20192;-65
2022/03/04 04:32:39;;;;;;;60.03;27.87;;;-1.40;99.90;;;;;;4974767;28;20553;-64
2022/03/04 04:35:05;;;;;;;52.87;23.87;;;-1.40;99.90;;;;;;4972989;28;20181;-65
2022/03/04 04:37:31;;;;;;;52.10;22.27;;;-1.50;99.90;;;;;;4972789;28;20235;-64
2022/03/04 04:39:57;;;;;;;50.57;24.30;;;-1.50;99.90;;;;;;4974193;28;20173;-64
2022/03/04 04:42:23;;;;;;;59.77;27.17;;;-1.50;99.90;;;;;;4974198;28;20188;-65
2022/03/04 04:44:49;;;;;;;50.80;22.80;;;-1.50;99.90;;;;;;4973999;28;20261;-64
2022/03/04 04:47:14;;;;;;;58.83;25.40;;;-1.50;99.90;;;;;;4973835;28;20332;-64
2022/03/04 04:49:40;;;;;;;46.40;22.37;;;-1.50;99.90;;;;;;4972842;28;20184;-64
2022/03/04 04:52:07;;;;;;;52.03;24.73;;;-1.50;99.90;;;;;;4973361;28;20203;-64
2022/03/04 04:54:34;;;;;;;58.20;24.73;;;-1.50;99.90;;;;;;4973848;28;20180;-65
2022/03/04 04:57:00;;;;;;;62.33;26.70;;;-1.60;99.90;;;;;;4973484;28;20676;-64
2022/03/04 04:59:25;;;;;;;55.77;25.33;;;-1.50;99.90;;;;;;4971936;28;20184;-64
2022/03/04 05:01:51;;;;;;;54.47;24.07;;;-1.60;99.90;;;;;;4974138;28;20181;-65
2022/03/04 05:04:17;;;;;;;53.80;24.17;;;-1.50;99.90;;;;;;4972393;28;20573;-64
2022/03/04 05:06:43;;;;;;;58.03;26.77;;;-1.50;99.90;;;;;;4972171;28;20267;-65
2022/03/04 05:09:09;;;;;;;53.83;23.30;;;-1.50;99.90;;;;;;4973327;28;20280;-65
2022/03/04 05:11:35;;;;;;;51.93;24.00;;;-1.50;99.90;;;;;;4973455;28;20185;-65
2022/03/04 05:14:01;;;;;;;51.83;24.93;;;-1.50;99.90;;;;;;4972661;28;20193;-64
2022/03/04 05:16:27;;;;;;;57.80;25.30;;;-1.50;99.90;;;;;;4973442;28;20213;-64
2022/03/04 05:18:53;;;;;;;51.37;22.00;;;-1.50;99.90;;;;;;4989303;28;20187;-64
2022/03/04 05:21:18;;;;;;;51.07;23.53;;;-1.50;99.90;;;;;;4991059;28;20638;-64
2022/03/04 05:23:59;;;;;;;55.43;24.43;;;-1.50;99.90;;;;;;4992713;28;20542;-67
2022/03/04 05:26:46;;;;;;;58.77;25.77;;;-1.50;99.90;;;;;;4992607;28;20274;-65
2022/03/04 05:29:13;;;;;;;54.37;24.63;;;-1.40;99.90;;;;;;4991527;28;20201;-64
2022/03/04 05:31:41;;;;;;;47.27;22.70;;;-1.40;99.90;;;;;;4990803;28;20657;-66
2022/03/04 05:34:06;;;;;;;54.87;23.97;;;-1.40;99.90;;;;;;4991827;28;20183;-66
2022/03/04 05:36:33;;;;;;;59.33;27.50;;;-1.30;99.90;;;;;;4992430;28;20215;-64
2022/03/04 05:39:02;;;;;;;50.00;22.53;;;-1.30;99.90;;;;;;4991666;28;20203;-64
2022/03/04 05:41:28;;;;;;;60.63;26.30;;;-1.30;99.90;;;;;;4991960;28;20172;-64
2022/03/04 05:43:54;;;;;;;55.30;25.80;;;-1.20;99.90;;;;;;4990309;28;20194;-63
2022/03/04 05:46:19;;;;;;;60.17;26.30;;;-1.10;99.90;;;;;;4990344;28;20255;-64
2022/03/04 05:48:45;;;;;;;46.10;19.73;;;-1.10;99.90;;;;;;4992002;28;20208;-67
2022/03/04 05:51:11;;;;;;;59.23;25.43;;;-1.00;99.90;;;;;;4991660;28;20293;-66
2022/03/04 05:53:37;;;;;;;54.50;25.13;;;-1.00;99.90;;;;;;4991277;28;20184;-64
2022/03/04 05:56:05;;;;;;;62.63;27.17;;;-0.90;99.90;;;;;;4991368;28;20303;-65
2022/03/04 05:58:30;;;;;;;61.57;27.77;;;-0.90;99.90;;;;;;4991484;28;20546;-65
2022/03/04 06:00:56;;;;;;;59.20;28.83;;;-0.80;99.90;;;;;;4989832;28;20219;-75
2022/03/04 06:03:22;;;;;;;55.17;23.93;;;-0.80;99.90;;;;;;4991225;28;20691;-65
2022/03/04 06:05:48;;;;;;;55.07;26.07;;;-0.70;99.90;;;;;;4991365;28;20243;-64
2022/03/04 06:08:14;;;;;;;55.27;25.13;;;-0.60;99.90;;;;;;4991489;28;20341;-66
2022/03/04 06:10:40;;;;;;;49.83;23.17;;;-0.60;99.90;;;;;;4991259;28;20176;-65
2022/03/04 06:13:06;;;;;;;48.20;23.90;;;-0.50;99.90;;;;;;4990964;28;20640;-65
2022/03/04 06:15:33;;;;;;;55.27;23.80;;;-0.40;99.90;;;;;;4990843;28;20219;-65
2022/03/04 06:17:58;;;;;;;40.30;20.70;;;-0.30;99.90;;;;;;4981106;28;20196;-65
2022/03/04 06:20:25;;;;;;;52.73;25.00;;;-0.30;99.90;;;;;;4972041;28;20189;-65
2022/03/04 06:22:51;;;;;;;52.13;23.57;;;-0.20;99.90;;;;;;4974160;28;20279;-65
2022/03/04 06:25:16;;;;;;;47.23;21.03;;;-0.20;99.90;;;;;;5000690;28;20358;-68
2022/03/04 06:27:59;;;;;;;43.73;23.77;;;-0.10;99.90;;;;;;4999113;28;20185;-67
2022/03/04 06:30:28;;;;;;;49.83;23.07;;;-0.10;99.90;;;;;;5004205;28;20184;-65
2022/03/04 06:35:40;;;;;;;35.30;15.47;;;0.10;99.90;;;;;;5001082;28;20222;-65
2022/03/04 06:38:05;;;;;;;49.30;25.23;;;0.20;99.90;;;;;;5002557;28;20195;-66
2022/03/04 06:40:31;;;;;;;43.63;20.23;;;0.20;99.90;;;;;;4994353;28;20193;-65
2022/03/04 06:42:57;;;;;;;39.83;18.60;;;0.10;99.90;;;;;;4981390;28;20231;-72
2022/03/04 06:45:23;;;;;;;27.60;13.67;;;0.10;99.90;;;;;;4987744;28;20187;-68
2022/03/04 06:47:48;;;;;;;44.30;20.40;;;0.10;99.90;;;;;;4990673;28;20204;-64
2022/03/04 06:50:15;;;;;;;40.73;18.57;;;0.20;99.90;;;;;;4993914;28;20555;-66
2022/03/04 06:52:43;;;;;;;37.80;17.87;;;0.20;99.90;;;;;;4996108;28;20668;-61
2022/03/04 06:55:09;;;;;;;38.40;18.47;;;0.20;99.90;;;;;;4995638;28;20592;-62
2022/03/04 06:57:35;;;;;;;42.07;19.53;;;0.20;99.90;;;;;;4993287;28;20745;-64
2022/03/04 07:00:03;;;;;;;40.73;18.93;;;0.30;99.90;;;;;;4960543;28;20211;-63
2022/03/04 07:02:29;;;;;;;37.23;18.93;;;0.50;99.90;;;;;;4995116;28;20188;-66
2022/03/04 07:04:55;;;;;;;41.97;18.33;;;0.60;99.90;;;;;;4980699;28;20267;-66
2022/03/04 07:07:20;;;;;;;38.50;18.33;;;0.70;99.90;;;;;;4997425;28;20266;-65
2022/03/04 07:09:46;;;;;;;37.90;17.07;;;0.90;99.90;;;;;;4998747;28;20208;-67
2022/03/04 07:12:12;;;;;;;36.67;17.17;;;0.80;99.90;;;;;;4997930;28;20290;-66
2022/03/04 07:14:38;;;;;;;33.07;15.27;;;1.00;99.90;;;;;;4999098;28;20626;-65
2022/03/04 07:17:04;;;;;;;37.03;17.30;;;1.30;99.90;;;;;;4996690;28;20244;-65
2022/03/04 07:19:29;;;;;;;36.07;17.13;;;1.40;99.90;;;;;;4980566;28;20189;-66
2022/03/04 07:21:55;;;;;;;33.33;16.43;;;1.70;99.90;;;;;;4999606;28;20188;-64
2022/03/04 07:24:21;;;;;;;32.17;16.97;;;1.70;99.90;;;;;;5001862;28;20198;-65
2022/03/04 07:26:47;;;;;;;34.47;17.07;;;1.50;99.90;;;;;;5003006;28;20207;-66
2022/03/04 07:29:12;;;;;;;32.93;17.63;;;1.50;99.90;;;;;;5000626;28;20520;-66
2022/03/04 07:31:38;;;;;;;36.40;17.30;;;1.40;99.90;;;;;;5001157;28;20688;-66
2022/03/04 07:34:04;;;;;;;36.17;17.07;;;1.30;99.90;;;;;;4994400;28;20496;-70
2022/03/04 07:36:29;;;;;;;35.80;18.17;;;1.40;99.90;;;;;;5002344;28;20239;-67
2022/03/04 07:38:57;;;;;;;34.03;17.27;;;1.40;99.90;;;;;;5000509;28;20197;-68
2022/03/04 07:41:23;;;;;;;39.60;17.73;;;1.40;99.90;;;;;;5000593;28;20209;-71
2022/03/04 07:43:50;;;;;;;31.47;17.53;;;1.40;99.90;;;;;;5000849;28;20270;-73
2022/03/04 07:46:16;;;;;;;36.47;16.93;;;1.40;99.90;;;;;;5007406;28;20219;-62
2022/03/04 07:48:41;;;;;;;38.50;17.53;;;1.50;99.90;;;;;;4999962;28;20611;-64
2022/03/04 07:51:07;;;;;;;30.03;14.50;;;1.60;99.90;;;;;;5002251;28;20547;-66
2022/03/04 07:53:33;;;;;;;34.10;16.70;;;1.70;99.90;;;;;;4999070;28;20245;-61
2022/03/04 07:55:58;;;;;;;31.80;16.50;;;1.80;99.90;;;;;;5000207;28;20719;-62
2022/03/04 07:58:24;;;;;;;35.13;16.47;;;1.90;99.90;;;;;;5002227;28;20191;-62
2022/03/04 08:00:50;;;;;;;41.07;15.40;;;1.90;99.90;;;;;;4999971;28;20211;-61
2022/03/04 08:03:16;;;;;;;41.23;18.43;;;1.90;99.90;;;;;;4998908;28;20220;-64
2022/03/04 08:05:41;;;;;;;32.53;16.90;;;2.20;99.90;;;;;;5000724;28;20211;-62
2022/03/04 08:08:07;;;;;;;32.97;16.13;;;2.50;99.90;;;;;;5000269;28;20192;-62
2022/03/04 08:10:33;;;;;;;32.77;16.87;;;2.40;99.90;;;;;;4998729;28;20684;-61
2022/03/04 08:12:59;;;;;;;30.80;16.20;;;2.30;99.90;;;;;;5000335;28;20770;-63
2022/03/04 08:15:24;;;;;;;34.57;16.53;;;2.40;99.90;;;;;;4998533;28;20199;-62
2022/03/04 08:17:50;;;;;;;32.03;16.93;;;2.50;99.90;;;;;;4998391;28;20654;-65
2022/03/04 08:20:16;;;;;;;28.30;12.73;;;2.60;99.90;;;;;;4999033;28;20194;-62
2022/03/04 08:22:42;;;;;;;34.27;17.17;;;2.60;99.90;;;;;;4998471;28;20645;-62
2022/03/04 08:25:08;;;;;;;52.17;26.80;;;2.80;99.90;;;;;;4998615;28;20727;-64
2022/03/04 08:27:41;;;;;;;31.50;14.63;;;3.00;99.90;;;;;;4997184;28;20215;-63
2022/03/04 08:30:08;;;;;;;31.83;14.50;;;3.00;99.90;;;;;;4999785;28;20225;-63
2022/03/04 08:32:35;;;;;;;33.90;16.30;;;3.00;99.90;;;;;;4996787;28;20219;-62
2022/03/04 08:35:02;;;;;;;36.30;17.23;;;3.00;99.90;;;;;;4998982;28;20609;-66
2022/03/04 08:37:28;;;;;;;34.13;17.00;;;2.90;99.90;;;;;;5001894;28;20265;-62
2022/03/04 08:39:53;;;;;;;33.40;17.43;;;3.00;99.90;;;;;;5001773;28;20287;-62
2022/03/04 08:42:19;;;;;;;32.40;15.80;;;3.10;99.90;;;;;;4983954;28;20208;-61
2022/03/04 08:44:45;;;;;;;35.37;16.87;;;3.20;99.90;;;;;;5001539;28;20187;-63
2022/03/04 08:47:11;;;;;;;31.47;14.67;;;3.50;99.90;;;;;;5000793;28;20195;-61
2022/03/04 08:49:37;;;;;;;36.53;15.63;;;3.40;99.90;;;;;;5000970;28;20195;-63
2022/03/04 08:52:03;;;;;;;32.50;15.30;;;3.50;99.90;;;;;;5000310;28;20191;-64
2022/03/04 08:54:29;;;;;;;26.90;12.83;;;3.70;99.90;;;;;;5000095;28;20663;-61
2022/03/04 08:56:55;;;;;;;30.90;14.97;;;3.80;99.90;;;;;;4990535;28;20295;-60
2022/03/04 08:59:21;;;;;;;38.90;14.47;;;3.80;99.90;;;;;;4991472;28;20655;-62
2022/03/04 09:01:47;;;;;;;29.13;14.60;;;3.60;99.90;;;;;;4991672;28;20187;-61
2022/03/04 09:04:14;;;;;;;26.93;14.00;;;3.60;99.90;;;;;;4990914;28;20223;-61
2022/03/04 09:06:40;;;;;;;27.37;11.90;;;3.50;99.90;;;;;;4990993;28;20327;-61
2022/03/04 09:09:06;;;;;;;29.17;14.23;;;3.30;99.90;;;;;;4992200;28;20210;-61
2022/03/04 09:11:32;;;;;;;39.63;17.33;;;3.10;99.90;;;;;;4990720;28;20283;-63
2022/03/04 09:13:58;;;;;;;27.57;13.70;;;3.00;99.90;;;;;;4992298;28;20184;-62
2022/03/04 09:16:23;;;;;;;29.20;14.40;;;3.10;99.90;;;;;;4990642;28;20223;-61
2022/03/04 09:18:49;;;;;;;30.53;15.37;;;3.20;99.90;;;;;;4975107;28;20185;-61
2022/03/04 09:21:15;;;;;;;30.70;14.07;;;3.60;99.90;;;;;;4972228;28;20189;-61
2022/03/04 09:23:41;;;;;;;24.93;13.93;;;3.70;99.90;;;;;;4971192;28;20188;-62
2022/03/04 09:26:06;;;;;;;28.03;12.90;;;3.70;99.90;;;;;;4970784;28;20193;-62
2022/03/04 09:28:32;;;;;;;22.87;11.63;;;3.80;99.90;;;;;;4972311;28;20519;-61
2022/03/04 09:30:58;;;;;;;28.20;14.37;;;3.90;99.90;;;;;;4971042;28;20242;-62
2022/03/04 09:33:24;;;;;;;41.80;15.97;;;3.80;99.90;;;;;;4972230;28;20840;-62
2022/03/04 09:35:50;;;;;;;27.30;12.50;;;3.70;99.90;;;;;;4972487;28;20291;-62
2022/03/04 09:38:16;;;;;;;30.53;15.07;;;4.00;99.90;;;;;;4972470;28;20726;-62
2022/03/04 09:40:42;;;;;;;23.83;12.93;;;4.00;99.90;;;;;;4971307;28;20192;-62
2022/03/04 09:43:08;;;;;;;30.67;14.33;;;3.90;99.90;;;;;;4971149;28;20189;-62
2022/03/04 09:45:35;;;;;;;27.37;13.40;;;3.90;99.90;;;;;;4972497;28;20271;-61
2022/03/04 09:48:03;;;;;;;31.17;13.87;;;3.80;99.90;;;;;;4971462;28;20184;-61
2022/03/04 09:50:32;;;;;;;28.43;12.20;;;3.60;99.90;;;;;;4971214;28;20306;-62
2022/03/04 09:52:58;;;;;;;31.87;13.63;;;3.70;99.90;;;;;;4973099;28;20175;-62
2022/03/04 09:55:24;;;;;;;36.27;15.37;;;3.60;99.90;;;;;;4972528;28;20551;-62
2022/03/04 09:57:50;;;;;;;31.27;15.70;;;3.70;99.90;;;;;;4954590;28;20644;-63
2022/03/04 10:00:17;;;;;;;32.23;14.30;;;3.90;99.90;;;;;;4970732;28;20181;-61
2022/03/04 10:02:42;;;;;;;42.60;14.43;;;3.80;99.90;;;;;;4972112;28;20592;-61
2022/03/04 10:05:08;;;;;;;32.47;16.20;;;3.70;99.90;;;;;;4970905;28;20189;-62
2022/03/04 10:07:43;;;;;;;30.23;14.97;;;3.70;99.90;;;;;;4954615;28;20243;-63
2022/03/04 10:10:15;;;;;;;31.90;15.20;;;3.40;99.90;;;;;;4971911;28;20184;-66
2022/03/04 10:12:55;;;;;;;50.57;17.10;;;3.30;99.90;;;;;;4971634;28;20263;-63
2022/03/04 10:15:21;;;;;;;25.00;12.87;;;3.40;99.90;;;;;;4971625;28;20189;-62
2022/03/04 10:18:04;;;;;;;34.77;15.10;;;3.40;99.90;;;;;;4979222;28;20278;-63
2022/03/04 10:20:43;;;;;;;32.27;15.13;;;3.40;99.90;;;;;;4991581;28;20636;-61
2022/03/04 10:23:20;;;;;;;36.03;15.83;;;3.60;99.90;;;;;;4991256;28;20211;-62
2022/03/04 10:25:51;;;;;;;42.77;17.27;;;3.80;99.90;;;;;;4991438;28;20186;-63
2022/03/04 10:28:17;;;;;;;29.20;14.97;;;3.70;99.90;;;;;;4991288;28;20231;-66
2022/03/04 10:30:46;;;;;;;44.87;17.50;;;3.60;99.90;;;;;;4991486;28;20211;-63
2022/03/04 10:33:17;;;;;;;27.30;13.53;;;3.60;99.90;;;;;;4990987;28;20574;-62
2022/03/04 10:35:44;;;;;;;31.87;15.20;;;3.60;99.90;;;;;;4991542;28;20224;-61
2022/03/04 10:38:30;;;;;;;35.30;15.07;;;3.40;99.90;;;;;;4989396;28;20727;-63
2022/03/04 10:40:56;;;;;;;31.30;15.07;;;3.50;99.90;;;;;;4988996;28;20231;-62
2022/03/04 10:43:35;;;;;;;35.67;16.43;;;3.50;99.90;;;;;;4989395;28;20557;-62
2022/03/04 10:46:04;;;;;;;40.10;16.87;;;3.50;99.90;;;;;;4990623;28;20197;-62
2022/03/04 10:48:30;;;;;;;29.30;15.13;;;3.50;99.90;;;;;;4990265;28;20225;-64
2022/03/04 10:50:59;;;;;;;29.80;15.97;;;3.50;99.90;;;;;;4973791;28;20717;-62
2022/03/04 10:53:27;;;;;;;36.90;17.70;;;3.30;99.90;;;;;;4991105;28;20168;-61
2022/03/04 10:56:20;;;;;;;46.87;18.93;;;3.40;99.90;;;;;;4990747;28;20208;-63
2022/03/04 10:58:50;;;;;;;47.97;18.77;;;3.40;99.90;;;;;;4993456;28;20207;-62
2022/03/04 11:01:19;;;;;;;48.13;18.33;;;3.60;99.90;;;;;;4994886;28;20238;-62
2022/03/04 11:03:45;;;;;;;29.57;15.70;;;3.60;99.90;;;;;;4994937;28;20180;-63
2022/03/04 11:06:14;;;;;;;46.47;18.80;;;3.60;99.90;;;;;;4994559;28;20691;-60
2022/03/04 11:08:42;;;;;;;26.77;12.60;;;3.70;99.90;;;;;;4994552;28;20644;-61
2022/03/04 11:11:09;;;;;;;35.37;17.20;;;3.80;99.90;;;;;;4994608;28;20214;-65
2022/03/04 11:13:36;;;;;;;33.50;15.20;;;3.50;99.90;;;;;;5009500;28;20234;-60
2022/03/04 11:16:04;;;;;;;33.53;17.20;;;3.40;99.90;;;;;;4994955;28;20204;-62
2022/03/04 11:18:30;;;;;;;24.63;11.77;;;3.30;99.90;;;;;;4976781;28;20232;-62
2022/03/04 11:21:00;;;;;;;32.37;16.63;;;3.50;99.90;;;;;;4994328;28;20190;-62
2022/03/04 11:23:31;;;;;;;40.03;18.33;;;3.50;99.90;;;;;;4994229;28;20188;-62
2022/03/04 11:25:59;;;;;;;34.03;16.70;;;3.70;99.90;;;;;;4993635;28;20180;-63
2022/03/04 11:28:38;;;;;;;33.67;17.57;;;3.80;99.90;;;;;;4993998;28;20215;-62
2022/03/04 11:31:07;;;;;;;35.33;17.73;;;3.90;99.90;;;;;;4992373;28;20181;-64
2022/03/04 11:34:02;;;;;;;58.87;20.77;;;3.80;99.90;;;;;;4992750;28;20207;-60
2022/03/04 11:36:29;;;;;;;47.53;20.30;;;3.80;99.90;;;;;;4992860;28;20224;-63
2022/03/04 11:38:58;;;;;;;43.53;18.63;;;4.10;99.90;;;;;;4992588;28;20184;-61
2022/03/04 11:41:27;;;;;;;39.77;19.00;;;4.00;99.90;;;;;;4993642;28;20288;-64
2022/03/04 11:44:01;;;;;;;49.13;19.57;;;3.70;99.90;;;;;;4993927;28;20188;-61
2022/03/04 11:46:48;;;;;;;47.83;19.37;;;3.70;99.90;;;;;;4992051;28;20187;-61
2022/03/04 11:49:47;;;;;;;35.93;17.43;;;3.70;99.90;;;;;;4994235;28;20191;-62
2022/03/04 11:52:21;;;;;;;58.13;20.30;;;3.70;99.90;;;;;;4991579;28;20191;-63
2022/03/04 11:54:50;;;;;;;39.30;18.20;;;3.70;99.90;;;;;;4989294;28;20180;-62
2022/03/04 11:57:28;;;;;;;31.97;18.33;;;3.50;99.90;;;;;;4991197;28;20216;-62
2022/03/04 11:59:55;;;;;;;40.77;19.77;;;3.50;99.90;;;;;;4993395;28;20187;-61
2022/03/04 12:02:26;;;;;;;36.13;16.87;;;3.50;99.90;;;;;;4991097;28;20187;-62
2022/03/04 12:05:21;;;;;;;32.53;16.50;;;3.40;99.90;;;;;;4993992;28;20200;-62
2022/03/04 12:08:08;;;;;;;34.87;16.63;;;3.40;99.90;;;;;;4993350;28;20244;-61
2022/03/04 12:10:45;;;;;;;48.13;19.00;;;3.40;99.90;;;;;;4993201;28;20692;-62
2022/03/04 12:13:31;;;;;;;40.63;17.80;;;3.50;99.90;;;;;;4993645;28;20192;-61
2022/03/04 12:16:04;;;;;;;32.60;17.70;;;3.60;99.90;;;;;;4992937;28;20238;-62
2022/03/04 12:18:34;;;;;;;36.87;16.10;;;3.50;99.90;;;;;;4978695;28;20299;-61
2022/03/04 12:21:25;;;;;;;30.20;17.00;;;3.40;99.90;;;;;;4974100;28;20292;-63
2022/03/04 12:24:03;;;;;;;34.37;16.93;;;3.30;99.90;;;;;;4966554;28;20222;-61
2022/03/04 12:26:35;;;;;;;35.73;17.40;;;3.20;99.90;;;;;;4973810;28;20180;-60
2022/03/04 12:29:15;;;;;;;42.43;16.47;;;3.10;99.90;;;;;;4972726;28;20287;-64
2022/03/04 12:31:44;;;;;;;33.20;13.17;;;2.90;99.90;;;;;;4973514;28;20704;-62
2022/03/04 12:34:26;;;;;;;27.80;15.00;;;2.80;99.90;;;;;;4974179;28;20189;-62
2022/03/04 12:36:53;;;;;;;43.43;16.63;;;2.80;99.90;;;;;;4972559;28;20318;-60
2022/03/04 12:39:19;;;;;;;26.53;12.90;;;2.90;99.90;;;;;;4973307;28;20268;-62